Time;durP1;ratioP1;P1;durP2;ratioP2;P2;SDS_P1;SDS_P2;PMS_P1;PMS_P2;Temp;Humidity;BMP_temperature;BMP_pressure;BME280_temperature;BME280_humidity;BME280_pressure;Samples;Min_cycle;Max_cycle;Signal;HPM_P1;HPM_P2
2023/05/26 00:00:51;;;;;;;14.27;5.40;;;;;;;;;;5052431;28;20037;-32
2023/05/26 00:03:17;;;;;;;15.85;5.45;;;;;;;;;;5052424;28;20127;-32
2023/05/26 00:05:44;;;;;;;14.60;5.38;;;;;;;;;;5052357;28;20029;-31
2023/05/26 00:08:10;;;;;;;16.77;5.32;;;;;;;;;;5052397;28;20017;-30
2023/05/26 00:10:36;;;;;;;16.83;5.47;;;;;;;;;;5052360;28;20021;-30
2023/05/26 00:13:03;;;;;;;14.55;4.72;;;;;;;;;;5052534;28;20104;-30
2023/05/26 00:15:29;;;;;;;15.70;5.00;;;;;;;;;;5052157;28;20056;-31
2023/05/26 00:17:57;;;;;;;14.57;5.13;;;;;;;;;;5052518;28;20103;-32
2023/05/26 00:20:24;;;;;;;14.63;4.78;;;;;;;;;;5052196;28;20029;-31
2023/05/26 00:22:50;;;;;;;15.98;5.35;;;;;;;;;;5054385;28;20362;-30
2023/05/26 00:25:16;;;;;;;13.90;5.00;;;;;;;;;;5056829;28;20100;-30
2023/05/26 00:27:42;;;;;;;15.95;4.72;;;;;;;;;;5056420;28;20109;-30
2023/05/26 00:30:08;;;;;;;11.60;4.55;;;;;;;;;;5056542;28;20029;-30
2023/05/26 00:32:34;;;;;;;15.80;4.75;;;;;;;;;;5056674;28;20799;-30
2023/05/26 00:35:00;;;;;;;13.65;4.28;;;;;;;;;;5056569;28;20036;-30
2023/05/26 00:37:26;;;;;;;14.30;4.80;;;;;;;;;;5055075;28;20106;-30
2023/05/26 00:39:52;;;;;;;15.60;4.78;;;;;;;;;;5055901;28;20518;-34
2023/05/26 00:42:18;;;;;;;19.13;5.95;;;;;;;;;;5055879;28;20034;-30
2023/05/26 00:44:44;;;;;;;17.73;4.82;;;;;;;;;;5056138;28;20466;-35
2023/05/26 00:47:10;;;;;;;12.93;4.40;;;;;;;;;;5054917;28;20540;-33
2023/05/26 00:49:36;;;;;;;14.77;4.85;;;;;;;;;;5055722;28;20035;-30
2023/05/26 00:52:03;;;;;;;12.60;3.80;;;;;;;;;;5055835;28;20100;-30
2023/05/26 00:54:29;;;;;;;14.95;4.30;;;;;;;;;;5055927;28;20021;-35
2023/05/26 00:56:56;;;;;;;15.40;4.88;;;;;;;;;;5055787;28;20021;-33
2023/05/26 00:59:22;;;;;;;10.23;4.57;;;;;;;;;;5055747;28;20027;-31
2023/05/26 01:01:49;;;;;;;13.60;5.18;;;;;;;;;;5055570;28;20385;-31
2023/05/26 01:04:15;;;;;;;16.40;4.32;;;;;;;;;;5055510;28;20366;-31
2023/05/26 01:06:44;;;;;;;14.10;4.63;;;;;;;;;;5055619;28;20052;-30
2023/05/26 01:09:10;;;;;;;18.13;5.63;;;;;;;;;;5055576;28;20025;-30
2023/05/26 01:11:42;;;;;;;13.32;5.03;;;;;;;;;;5055508;28;20025;-32
2023/05/26 01:14:11;;;;;;;15.20;4.45;;;;;;;;;;5055313;28;20037;-31
2023/05/26 01:16:40;;;;;;;14.98;4.95;;;;;;;;;;5055462;28;20078;-31
2023/05/26 01:19:24;;;;;;;12.30;4.25;;;;;;;;;;5055380;28;20363;-31
2023/05/26 01:21:55;;;;;;;15.80;4.68;;;;;;;;;;5055599;28;20561;-30
2023/05/26 01:24:29;;;;;;;13.63;4.40;;;;;;;;;;5055324;28;20366;-31
2023/05/26 01:27:17;;;;;;;16.88;5.47;;;;;;;;;;5055664;28;20035;-31
2023/05/26 01:29:43;;;;;;;13.07;4.90;;;;;;;;;;5055524;28;20031;-31
2023/05/26 01:32:10;;;;;;;15.30;4.32;;;;;;;;;;5055308;28;20533;-31
2023/05/26 01:34:36;;;;;;;12.57;4.28;;;;;;;;;;5053847;28;20033;-30
2023/05/26 01:37:02;;;;;;;11.43;4.20;;;;;;;;;;5055474;28;20483;-31
2023/05/26 01:39:28;;;;;;;14.23;4.82;;;;;;;;;;5055170;28;20148;-30
2023/05/26 01:42:13;;;;;;;15.73;4.70;;;;;;;;;;5054967;28;20029;-30
2023/05/26 01:44:43;;;;;;;11.35;3.97;;;;;;;;;;5054967;28;20040;-32
2023/05/26 01:47:10;;;;;;;12.93;4.40;;;;;;;;;;5055057;28;20114;-32
2023/05/26 01:49:38;;;;;;;11.15;4.30;;;;;;;;;;5054763;28;20039;-31
2023/05/26 01:52:07;;;;;;;13.27;4.38;;;;;;;;;;5054742;28;20033;-31
2023/05/26 01:54:35;;;;;;;11.98;4.22;;;;;;;;;;5054818;28;20032;-36
2023/05/26 01:57:02;;;;;;;11.85;3.95;;;;;;;;;;5054449;28;20036;-31
2023/05/26 01:59:29;;;;;;;13.52;4.22;;;;;;;;;;5054629;28;20033;-31
2023/05/26 02:01:55;;;;;;;13.32;4.20;;;;;;;;;;5054873;28;20588;-33
2023/05/26 02:04:21;;;;;;;14.88;4.38;;;;;;;;;;5054512;28;20112;-31
2023/05/26 02:06:47;;;;;;;16.10;4.45;;;;;;;;;;5054715;28;20032;-30
2023/05/26 02:09:13;;;;;;;15.63;5.07;;;;;;;;;;5054555;28;20442;-31
2023/05/26 02:11:39;;;;;;;14.13;4.60;;;;;;;;;;5053423;28;20128;-30
2023/05/26 02:14:05;;;;;;;11.95;4.55;;;;;;;;;;5054702;28;20028;-30
2023/05/26 02:16:32;;;;;;;15.20;4.20;;;;;;;;;;5054177;28;20025;-32
2023/05/26 02:18:58;;;;;;;13.18;4.10;;;;;;;;;;5054279;28;20107;-30
2023/05/26 02:21:24;;;;;;;13.73;4.93;;;;;;;;;;5054285;28;20028;-30
2023/05/26 02:23:50;;;;;;;13.82;4.20;;;;;;;;;;5053970;28;20036;-31
2023/05/26 02:26:16;;;;;;;13.32;3.83;;;;;;;;;;5054524;28;20021;-31
2023/05/26 02:28:42;;;;;;;13.40;4.95;;;;;;;;;;5054048;28;20025;-32
2023/05/26 02:31:08;;;;;;;13.75;4.80;;;;;;;;;;5053863;28;20021;-31
2023/05/26 02:33:34;;;;;;;12.63;3.67;;;;;;;;;;5053958;28;20115;-32
2023/05/26 02:36:00;;;;;;;10.25;3.90;;;;;;;;;;5053960;28;20033;-31
2023/05/26 02:38:26;;;;;;;14.52;4.43;;;;;;;;;;5053888;28;20021;-32
2023/05/26 02:40:52;;;;;;;9.13;3.90;;;;;;;;;;5053491;28;20052;-30
2023/05/26 02:43:22;;;;;;;13.40;4.30;;;;;;;;;;5053681;28;20033;-30
2023/05/26 02:45:48;;;;;;;11.75;3.90;;;;;;;;;;5053211;28;20127;-32
2023/05/26 02:48:14;;;;;;;14.77;4.47;;;;;;;;;;5053672;28;20025;-31
2023/05/26 02:50:40;;;;;;;13.52;4.43;;;;;;;;;;5053689;28;20025;-30
2023/05/26 02:53:06;;;;;;;13.93;4.30;;;;;;;;;;5053462;28;20378;-30
2023/05/26 02:55:32;;;;;;;10.25;4.18;;;;;;;;;;5053572;28;20036;-32
2023/05/26 02:57:58;;;;;;;11.90;3.58;;;;;;;;;;5053509;28;20040;-32
2023/05/26 03:00:24;;;;;;;15.18;4.35;;;;;;;;;;5053402;28;20032;-30
2023/05/26 03:02:50;;;;;;;12.93;5.07;;;;;;;;;;5053383;28;20036;-30
2023/05/26 03:05:16;;;;;;;16.10;4.78;;;;;;;;;;5053303;28;20025;-31
2023/05/26 03:07:42;;;;;;;11.50;4.03;;;;;;;;;;5053368;28;20025;-35
2023/05/26 03:10:08;;;;;;;11.43;4.50;;;;;;;;;;5053429;28;20017;-34
2023/05/26 03:12:34;;;;;;;14.85;4.93;;;;;;;;;;5053291;28;20024;-31
2023/05/26 03:15:00;;;;;;;13.65;4.35;;;;;;;;;;5053639;28;20036;-30
2023/05/26 03:17:27;;;;;;;12.98;3.58;;;;;;;;;;5053293;28;20037;-32
2023/05/26 03:19:53;;;;;;;11.98;3.95;;;;;;;;;;5053148;28;20025;-29
2023/05/26 03:22:19;;;;;;;9.07;4.20;;;;;;;;;;5052952;28;20032;-30
2023/05/26 03:24:45;;;;;;;11.38;5.35;;;;;;;;;;5053307;28;20023;-30
2023/05/26 03:27:11;;;;;;;15.88;4.13;;;;;;;;;;5052998;28;20110;-29
2023/05/26 03:29:37;;;;;;;11.20;4.65;;;;;;;;;;5053046;28;20462;-29
2023/05/26 03:32:03;;;;;;;12.43;4.00;;;;;;;;;;5052853;28;20031;-30
2023/05/26 03:34:29;;;;;;;11.40;3.97;;;;;;;;;;5052878;28;20473;-34
2023/05/26 03:36:55;;;;;;;10.55;4.40;;;;;;;;;;5052593;28;20033;-30
2023/05/26 03:39:22;;;;;;;11.00;4.05;;;;;;;;;;5051238;28;20055;-32
2023/05/26 03:41:49;;;;;;;11.23;4.10;;;;;;;;;;5052714;28;20023;-33
2023/05/26 03:44:18;;;;;;;10.02;3.65;;;;;;;;;;5052555;28;20025;-30
2023/05/26 03:46:45;;;;;;;9.88;4.10;;;;;;;;;;5051520;28;20031;-33
2023/05/26 03:49:11;;;;;;;13.90;4.65;;;;;;;;;;5052232;28;20025;-31
2023/05/26 03:51:37;;;;;;;12.52;4.82;;;;;;;;;;5051992;28;20033;-31
2023/05/26 03:54:04;;;;;;;14.27;4.00;;;;;;;;;;5052171;28;20021;-32
2023/05/26 03:56:30;;;;;;;12.30;4.15;;;;;;;;;;5051443;28;20036;-31
2023/05/26 03:58:56;;;;;;;14.35;4.68;;;;;;;;;;5052383;28;20036;-31
2023/05/26 04:01:22;;;;;;;12.73;3.95;;;;;;;;;;5052336;28;20515;-31
2023/05/26 04:03:48;;;;;;;14.57;4.15;;;;;;;;;;5050808;28;20033;-31
2023/05/26 04:06:14;;;;;;;11.43;4.07;;;;;;;;;;5052587;28;20033;-30
2023/05/26 04:08:40;;;;;;;10.93;4.13;;;;;;;;;;5052354;28;20025;-31
2023/05/26 04:11:06;;;;;;;12.30;4.20;;;;;;;;;;5051765;28;20127;-32
2023/05/26 04:13:33;;;;;;;10.48;3.65;;;;;;;;;;5052032;28;20028;-31
2023/05/26 04:15:59;;;;;;;12.00;4.25;;;;;;;;;;5051774;28;20043;-30
2023/05/26 04:18:24;;;;;;;13.40;4.30;;;;;;;;;;5052178;28;20024;-32
2023/05/26 04:20:50;;;;;;;18.17;4.57;;;;;;;;;;5051807;28;20052;-31
2023/05/26 04:23:16;;;;;;;15.52;4.75;;;;;;;;;;5051618;28;20429;-30
2023/05/26 04:25:42;;;;;;;12.65;3.90;;;;;;;;;;5052478;28;20036;-32
2023/05/26 04:28:08;;;;;;;10.38;4.00;;;;;;;;;;5052486;28;20072;-36
2023/05/26 04:30:39;;;;;;;10.40;4.35;;;;;;;;;;5052001;28;20721;-31
2023/05/26 04:33:05;;;;;;;14.20;4.05;;;;;;;;;;5051901;28;20033;-30
2023/05/26 04:35:32;;;;;;;14.30;4.85;;;;;;;;;;5051864;28;20055;-31
2023/05/26 04:37:58;;;;;;;12.50;4.05;;;;;;;;;;5051811;28;20064;-31
2023/05/26 04:40:24;;;;;;;12.73;4.15;;;;;;;;;;5051641;28;20053;-31
2023/05/26 04:42:50;;;;;;;14.88;4.03;;;;;;;;;;5050335;28;20118;-30
2023/05/26 04:45:17;;;;;;;17.05;4.95;;;;;;;;;;5052138;28;20024;-31
2023/05/26 04:47:43;;;;;;;17.45;4.50;;;;;;;;;;5052257;28;20032;-30
2023/05/26 04:50:16;;;;;;;10.93;4.07;;;;;;;;;;5051756;28;20028;-30
2023/05/26 04:52:42;;;;;;;11.52;4.85;;;;;;;;;;5052195;28;20377;-31
2023/05/26 04:55:09;;;;;;;13.02;4.97;;;;;;;;;;5052035;28;20033;-30
2023/05/26 04:57:35;;;;;;;14.65;4.53;;;;;;;;;;5051809;28;20385;-30
2023/05/26 05:00:06;;;;;;;13.68;4.00;;;;;;;;;;5051762;28;20033;-30
2023/05/26 05:02:32;;;;;;;16.33;3.83;;;;;;;;;;5052069;28;20029;-31
2023/05/26 05:04:58;;;;;;;13.23;4.43;;;;;;;;;;5051705;28;20064;-30
2023/05/26 05:07:24;;;;;;;15.30;4.45;;;;;;;;;;5051895;28;20025;-30
2023/05/26 05:09:50;;;;;;;11.50;4.40;;;;;;;;;;5055378;28;20049;-31
2023/05/26 05:12:16;;;;;;;14.45;4.70;;;;;;;;;;5055596;28;20053;-31
2023/05/26 05:14:42;;;;;;;12.18;4.53;;;;;;;;;;5055490;28;20441;-31
2023/05/26 05:17:08;;;;;;;13.55;4.45;;;;;;;;;;5055954;28;20485;-32
2023/05/26 05:19:33;;;;;;;14.27;4.32;;;;;;;;;;5055407;28;20416;-31
2023/05/26 05:21:59;;;;;;;11.80;3.70;;;;;;;;;;5055058;28;20351;-31
2023/05/26 05:24:25;;;;;;;11.75;4.40;;;;;;;;;;5055161;28;20025;-31
2023/05/26 05:26:51;;;;;;;16.75;4.43;;;;;;;;;;5054900;28;20381;-32
2023/05/26 05:29:17;;;;;;;14.50;4.10;;;;;;;;;;5054957;28;20025;-32
2023/05/26 05:31:43;;;;;;;13.07;4.22;;;;;;;;;;5055006;28;20066;-31
2023/05/26 05:34:09;;;;;;;15.05;4.15;;;;;;;;;;5054944;28;20550;-30
2023/05/26 05:36:35;;;;;;;14.18;4.65;;;;;;;;;;5055033;28;20101;-31
2023/05/26 05:39:01;;;;;;;16.63;4.32;;;;;;;;;;5054892;28;20505;-30
2023/05/26 05:41:28;;;;;;;11.55;3.83;;;;;;;;;;5053825;28;20031;-31
2023/05/26 05:43:56;;;;;;;12.48;4.55;;;;;;;;;;5054853;28;20547;-36
2023/05/26 05:46:25;;;;;;;16.20;4.00;;;;;;;;;;5054829;28;20378;-30
2023/05/26 05:48:51;;;;;;;14.38;4.28;;;;;;;;;;5053498;28;20025;-30
2023/05/26 05:51:17;;;;;;;10.60;4.10;;;;;;;;;;5053741;28;20523;-31
2023/05/26 05:53:44;;;;;;;10.75;3.78;;;;;;;;;;5054927;28;20032;-32
2023/05/26 05:56:10;;;;;;;11.98;3.78;;;;;;;;;;5054612;28;20477;-31
2023/05/26 05:58:36;;;;;;;14.00;3.72;;;;;;;;;;5054702;28;20067;-30
2023/05/26 06:01:02;;;;;;;15.50;4.07;;;;;;;;;;5054517;28;20029;-30
2023/05/26 06:03:28;;;;;;;15.02;4.38;;;;;;;;;;5054440;28;20470;-31
2023/05/26 06:05:54;;;;;;;18.80;4.32;;;;;;;;;;5054426;28;20091;-30
2023/05/26 06:08:20;;;;;;;11.07;4.15;;;;;;;;;;5054381;28;20070;-31
2023/05/26 06:10:46;;;;;;;12.15;4.68;;;;;;;;;;5054309;28;20021;-31
2023/05/26 06:13:12;;;;;;;15.38;4.13;;;;;;;;;;5054340;28;20103;-32
2023/05/26 06:15:38;;;;;;;8.95;3.95;;;;;;;;;;5054029;28;20036;-31
2023/05/26 06:18:04;;;;;;;14.90;4.72;;;;;;;;;;5054256;28;20029;-30
2023/05/26 06:20:30;;;;;;;11.75;3.70;;;;;;;;;;5053327;28;20025;-32
2023/05/26 06:22:56;;;;;;;12.13;4.10;;;;;;;;;;5053963;28;20041;-31
2023/05/26 06:25:22;;;;;;;15.48;4.18;;;;;;;;;;5054232;28;20053;-30
2023/05/26 06:27:48;;;;;;;7.57;3.38;;;;;;;;;;5054242;28;20017;-32
2023/05/26 06:30:14;;;;;;;14.10;4.15;;;;;;;;;;5053916;28;20033;-32
2023/05/26 06:32:41;;;;;;;13.55;4.07;;;;;;;;;;5053990;28;20025;-31
2023/05/26 06:35:07;;;;;;;12.65;4.10;;;;;;;;;;5053734;28;20035;-32
2023/05/26 06:37:33;;;;;;;9.68;3.83;;;;;;;;;;5053691;28;20051;-32
2023/05/26 06:39:59;;;;;;;13.13;4.07;;;;;;;;;;5052317;28;20470;-31
2023/05/26 06:42:25;;;;;;;13.63;3.85;;;;;;;;;;5053815;28;20394;-33
2023/05/26 06:44:51;;;;;;;17.73;4.57;;;;;;;;;;5053713;28;20036;-31
2023/05/26 06:47:22;;;;;;;10.07;3.83;;;;;;;;;;5053574;28;20448;-36
2023/05/26 06:49:48;;;;;;;18.23;4.47;;;;;;;;;;5053604;28;20482;-34
2023/05/26 06:52:14;;;;;;;15.43;4.20;;;;;;;;;;5053487;28;20036;-30
2023/05/26 06:54:40;;;;;;;12.75;4.22;;;;;;;;;;5053269;28;20082;-31
2023/05/26 06:57:06;;;;;;;10.70;4.03;;;;;;;;;;5053532;28;20064;-31
2023/05/26 06:59:32;;;;;;;11.68;4.10;;;;;;;;;;5053273;28;20021;-33
2023/05/26 07:01:58;;;;;;;10.05;4.15;;;;;;;;;;5053435;28;20021;-31
2023/05/26 07:04:24;;;;;;;11.52;4.22;;;;;;;;;;5053417;28;20485;-31
2023/05/26 07:06:50;;;;;;;13.32;4.20;;;;;;;;;;5053308;28;20466;-31
2023/05/26 07:09:16;;;;;;;10.20;3.58;;;;;;;;;;5053521;28;20025;-31
2023/05/26 07:11:42;;;;;;;11.98;4.35;;;;;;;;;;5051995;28;20051;-30
2023/05/26 07:14:08;;;;;;;8.45;3.67;;;;;;;;;;5053062;28;20505;-30
2023/05/26 07:16:34;;;;;;;13.43;4.13;;;;;;;;;;5052825;28;20487;-31
2023/05/26 07:19:00;;;;;;;11.63;3.90;;;;;;;;;;5052962;28;20035;-30
2023/05/26 07:21:27;;;;;;;14.52;4.05;;;;;;;;;;5052941;28;20071;-30
2023/05/26 07:23:53;;;;;;;13.23;4.57;;;;;;;;;;5053295;28;20028;-32
2023/05/26 07:26:20;;;;;;;13.55;4.47;;;;;;;;;;5052956;28;20470;-30
2023/05/26 07:28:46;;;;;;;11.02;4.40;;;;;;;;;;5053044;28;20099;-31
2023/05/26 07:31:12;;;;;;;11.13;3.63;;;;;;;;;;5052703;28;20108;-31
2023/05/26 07:33:38;;;;;;;12.32;4.88;;;;;;;;;;5052958;28;20576;-34
2023/05/26 07:36:04;;;;;;;12.57;3.80;;;;;;;;;;5052675;28;20112;-31
2023/05/26 07:38:30;;;;;;;12.95;4.88;;;;;;;;;;5052558;28;20083;-33
2023/05/26 07:40:56;;;;;;;12.50;4.15;;;;;;;;;;5052273;28;20044;-31
2023/05/26 07:43:22;;;;;;;13.85;4.50;;;;;;;;;;5051035;28;20091;-32
2023/05/26 07:45:48;;;;;;;13.05;5.07;;;;;;;;;;5052638;28;20067;-31
2023/05/26 07:48:14;;;;;;;12.65;4.15;;;;;;;;;;5052309;28;20025;-35
2023/05/26 07:50:40;;;;;;;11.98;4.45;;;;;;;;;;5052722;28;20021;-31
2023/05/26 07:53:07;;;;;;;13.77;4.88;;;;;;;;;;5052399;28;20031;-31
2023/05/26 07:55:32;;;;;;;12.60;5.03;;;;;;;;;;5052262;28;20028;-30
2023/05/26 07:57:59;;;;;;;14.48;4.35;;;;;;;;;;5052147;28;20029;-32
2023/05/26 08:00:25;;;;;;;9.57;4.20;;;;;;;;;;5052111;28;20488;-32
2023/05/26 08:02:52;;;;;;;17.67;4.65;;;;;;;;;;5052180;28;20028;-31
2023/05/26 08:05:18;;;;;;;11.68;4.63;;;;;;;;;;5052407;28;20147;-31
2023/05/26 08:07:44;;;;;;;11.98;4.50;;;;;;;;;;5052421;28;20090;-34
2023/05/26 08:10:10;;;;;;;13.07;4.47;;;;;;;;;;5052061;28;20025;-30
2023/05/26 08:12:36;;;;;;;10.20;4.18;;;;;;;;;;5052082;28;20021;-31
2023/05/26 08:15:11;;;;;;;10.10;3.67;;;;;;;;;;5052031;28;20029;-31
2023/05/26 08:17:37;;;;;;;9.35;3.97;;;;;;;;;;5052247;28;20051;-32
2023/05/26 08:20:04;;;;;;;8.63;3.65;;;;;;;;;;5052110;28;20108;-32
2023/05/26 08:22:29;;;;;;;14.80;4.70;;;;;;;;;;5052016;28;20539;-31
2023/05/26 08:24:57;;;;;;;10.25;3.72;;;;;;;;;;5052224;28;20029;-33
2023/05/26 08:27:23;;;;;;;11.07;4.10;;;;;;;;;;5052197;28;20474;-30
2023/05/26 08:29:49;;;;;;;14.52;4.13;;;;;;;;;;5051965;28;20075;-30
2023/05/26 08:32:15;;;;;;;14.38;3.95;;;;;;;;;;5052025;28;20053;-31
2023/05/26 08:34:42;;;;;;;13.35;4.25;;;;;;;;;;5051863;28;20060;-31
2023/05/26 08:37:11;;;;;;;10.65;3.92;;;;;;;;;;5050741;28;20056;-33
2023/05/26 08:39:37;;;;;;;8.40;3.33;;;;;;;;;;5051899;28;20041;-30
2023/05/26 08:42:13;;;;;;;13.52;3.67;;;;;;;;;;5051805;28;20079;-33
2023/05/26 08:44:40;;;;;;;9.43;3.55;;;;;;;;;;5055656;28;20035;-33
2023/05/26 08:47:06;;;;;;;10.38;3.40;;;;;;;;;;5055816;28;20021;-30
2023/05/26 08:49:36;;;;;;;11.02;3.72;;;;;;;;;;5055972;28;20428;-32
2023/05/26 08:52:22;;;;;;;8.38;3.42;;;;;;;;;;5056041;28;20024;-33
2023/05/26 08:54:49;;;;;;;10.65;3.75;;;;;;;;;;5055524;28;20045;-31
2023/05/26 08:57:16;;;;;;;9.07;3.30;;;;;;;;;;5055841;28;20025;-32
2023/05/26 08:59:43;;;;;;;11.07;3.70;;;;;;;;;;5055996;28;20029;-32
2023/05/26 09:02:09;;;;;;;9.77;3.17;;;;;;;;;;5055601;28;20493;-30
2023/05/26 09:04:35;;;;;;;9.52;3.30;;;;;;;;;;5055644;28;20025;-33
2023/05/26 09:07:01;;;;;;;9.63;3.50;;;;;;;;;;5055609;28;20021;-33
2023/05/26 09:09:27;;;;;;;14.77;4.45;;;;;;;;;;5055320;28;20385;-31
2023/05/26 09:11:54;;;;;;;8.35;3.40;;;;;;;;;;5054265;28;20029;-31
2023/05/26 09:14:22;;;;;;;13.05;3.95;;;;;;;;;;5055339;28;20028;-32
2023/05/26 09:16:48;;;;;;;7.95;3.15;;;;;;;;;;5055416;28;20056;-30
2023/05/26 09:19:15;;;;;;;8.45;3.30;;;;;;;;;;5055425;28;20029;-33
2023/05/26 09:21:45;;;;;;;11.38;3.25;;;;;;;;;;5055254;28;20095;-35
2023/05/26 09:24:14;;;;;;;10.40;3.55;;;;;;;;;;5055183;28;20029;-31
2023/05/26 09:26:40;;;;;;;8.40;3.45;;;;;;;;;;5054977;28;20425;-31
2023/05/26 09:29:06;;;;;;;7.80;3.33;;;;;;;;;;5055064;28;20031;-31
2023/05/26 09:31:42;;;;;;;9.55;3.88;;;;;;;;;;5055174;28;20100;-30
2023/05/26 09:34:09;;;;;;;9.00;3.47;;;;;;;;;;5055028;28;20033;-30
2023/05/26 09:36:36;;;;;;;8.88;3.53;;;;;;;;;;5055035;28;20031;-31
2023/05/26 09:39:02;;;;;;;8.90;3.03;;;;;;;;;;5054671;28;20095;-31
2023/05/26 09:41:36;;;;;;;13.65;4.03;;;;;;;;;;5055069;28;20033;-30
2023/05/26 09:44:15;;;;;;;12.02;3.70;;;;;;;;;;5054673;28;20481;-30
2023/05/26 09:46:42;;;;;;;7.57;3.25;;;;;;;;;;5053412;28;20466;-31
2023/05/26 09:49:10;;;;;;;11.25;3.60;;;;;;;;;;5054698;28;20025;-30
2023/05/26 09:51:36;;;;;;;7.45;3.28;;;;;;;;;;5055049;28;20124;-34
2023/05/26 09:54:02;;;;;;;7.88;3.45;;;;;;;;;;5052701;28;20025;-30
2023/05/26 09:56:32;;;;;;;7.53;3.30;;;;;;;;;;5052810;28;20041;-35
2023/05/26 09:58:58;;;;;;;9.18;3.30;;;;;;;;;;5054623;28;20065;-30
2023/05/26 10:01:25;;;;;;;9.95;3.30;;;;;;;;;;5054704;28;20036;-31
2023/05/26 10:03:51;;;;;;;7.22;3.05;;;;;;;;;;5054395;28;20028;-31
2023/05/26 10:06:19;;;;;;;9.95;4.07;;;;;;;;;;5054275;28;20029;-30
2023/05/26 10:08:47;;;;;;;10.35;4.05;;;;;;;;;;5054202;28;20020;-33
2023/05/26 10:11:13;;;;;;;9.40;3.28;;;;;;;;;;5054208;28;20106;-30
2023/05/26 10:13:39;;;;;;;13.65;4.63;;;;;;;;;;5054340;28;20021;-29
2023/05/26 10:16:06;;;;;;;10.00;3.72;;;;;;;;;;5054487;28;20023;-29
2023/05/26 10:18:32;;;;;;;11.43;3.50;;;;;;;;;;5054234;28;20025;-31
2023/05/26 10:20:59;;;;;;;12.82;3.75;;;;;;;;;;5054190;28;20040;-31
2023/05/26 10:23:29;;;;;;;10.30;3.92;;;;;;;;;;5054198;28;20083;-31
2023/05/26 10:26:00;;;;;;;8.07;3.28;;;;;;;;;;5054173;28;20024;-31
2023/05/26 10:28:30;;;;;;;12.60;4.00;;;;;;;;;;5053885;28;20021;-31
2023/05/26 10:31:00;;;;;;;8.68;3.13;;;;;;;;;;5053954;28;20466;-34
2023/05/26 10:33:37;;;;;;;9.60;3.30;;;;;;;;;;5053736;28;20029;-32
2023/05/26 10:36:06;;;;;;;9.73;3.53;;;;;;;;;;5053856;28;20032;-35
2023/05/26 10:38:36;;;;;;;11.00;3.75;;;;;;;;;;5053382;28;20470;-32
2023/05/26 10:41:02;;;;;;;7.75;3.47;;;;;;;;;;5053746;28;20056;-32
2023/05/26 10:43:29;;;;;;;9.25;3.72;;;;;;;;;;5053644;28;20029;-29
2023/05/26 10:45:57;;;;;;;10.07;3.65;;;;;;;;;;5053819;28;20437;-30
2023/05/26 10:48:46;;;;;;;10.40;3.55;;;;;;;;;;5053610;28;20380;-30
2023/05/26 10:51:17;;;;;;;11.23;3.83;;;;;;;;;;5053370;28;20025;-30
2023/05/26 10:53:44;;;;;;;9.30;3.65;;;;;;;;;;5053500;28;20021;-30
2023/05/26 10:56:12;;;;;;;13.60;3.95;;;;;;;;;;5053519;28;20025;-30
2023/05/26 10:58:41;;;;;;;13.20;3.65;;;;;;;;;;5053046;28;20500;-35
2023/05/26 11:01:19;;;;;;;8.32;3.33;;;;;;;;;;5053471;28;20028;-34
2023/05/26 11:03:55;;;;;;;11.75;3.50;;;;;;;;;;5053069;28;20074;-32
2023/05/26 11:06:35;;;;;;;9.10;3.58;;;;;;;;;;5052767;28;20542;-30
2023/05/26 11:09:07;;;;;;;10.30;3.58;;;;;;;;;;5053280;28;20025;-31
2023/05/26 11:11:36;;;;;;;11.93;3.50;;;;;;;;;;5053296;28;20116;-31
2023/05/26 11:14:09;;;;;;;12.80;3.67;;;;;;;;;;5053221;28;20028;-30
2023/05/26 11:16:36;;;;;;;9.25;4.07;;;;;;;;;;5053470;28;20025;-32
2023/05/26 11:19:06;;;;;;;8.23;4.30;;;;;;;;;;5053408;28;20081;-35
2023/05/26 11:21:36;;;;;;;10.77;3.80;;;;;;;;;;5052738;28;20477;-33
2023/05/26 11:24:03;;;;;;;9.57;4.15;;;;;;;;;;5052790;28;20028;-32
2023/05/26 11:26:33;;;;;;;10.65;3.58;;;;;;;;;;5052834;28;20493;-32
2023/05/26 11:29:01;;;;;;;9.57;4.10;;;;;;;;;;5051622;28;20025;-30
2023/05/26 11:31:27;;;;;;;10.20;4.18;;;;;;;;;;5053033;28;20052;-31
2023/05/26 11:33:53;;;;;;;8.60;3.60;;;;;;;;;;5051673;28;20116;-30
2023/05/26 11:36:20;;;;;;;10.40;3.75;;;;;;;;;;5052750;28;20037;-35
2023/05/26 11:38:47;;;;;;;11.38;4.15;;;;;;;;;;5052663;28;20051;-33
2023/05/26 11:41:17;;;;;;;9.57;4.15;;;;;;;;;;5052562;28;20112;-32
2023/05/26 11:43:45;;;;;;;10.23;4.23;;;;;;;;;;5052406;28;20398;-30
2023/05/26 11:46:13;;;;;;;10.90;4.57;;;;;;;;;;5051259;28;20428;-33
2023/05/26 11:48:40;;;;;;;8.32;3.78;;;;;;;;;;5052664;28;20477;-32
2023/05/26 11:51:10;;;;;;;16.85;4.43;;;;;;;;;;5052424;28;20024;-30
2023/05/26 11:53:37;;;;;;;11.88;3.90;;;;;;;;;;5052326;28;20478;-31
2023/05/26 11:56:07;;;;;;;6.68;3.80;;;;;;;;;;5052374;28;20035;-35
2023/05/26 11:58:35;;;;;;;9.07;4.15;;;;;;;;;;5052294;28;20029;-31
2023/05/26 12:01:01;;;;;;;9.82;4.20;;;;;;;;;;5052432;28;20021;-30
2023/05/26 12:03:27;;;;;;;11.82;4.78;;;;;;;;;;5052134;28;20429;-32
2023/05/26 12:06:04;;;;;;;11.77;3.80;;;;;;;;;;5052233;28;20017;-31
2023/05/26 12:08:30;;;;;;;12.65;4.47;;;;;;;;;;5052306;28;20526;-31
2023/05/26 12:10:56;;;;;;;11.15;4.30;;;;;;;;;;5052128;28;20100;-30
2023/05/26 12:13:29;;;;;;;8.68;4.07;;;;;;;;;;5051200;28;20029;-32
2023/05/26 12:15:55;;;;;;;7.13;3.65;;;;;;;;;;5052285;28;20029;-31
2023/05/26 12:18:24;;;;;;;11.15;4.82;;;;;;;;;;5051446;28;20040;-30
2023/05/26 12:20:50;;;;;;;11.85;4.30;;;;;;;;;;5052062;28;20120;-29
2023/05/26 12:23:23;;;;;;;9.43;3.90;;;;;;;;;;5051928;28;20025;-31
2023/05/26 12:25:49;;;;;;;11.65;4.72;;;;;;;;;;5051803;28;20382;-30
2023/05/26 12:28:15;;;;;;;10.60;4.75;;;;;;;;;;5051937;28;20072;-30
2023/05/26 12:30:41;;;;;;;12.18;4.65;;;;;;;;;;5051895;28;20021;-30
2023/05/26 12:33:07;;;;;;;17.48;4.90;;;;;;;;;;5052226;28;20028;-32
2023/05/26 12:35:33;;;;;;;11.48;4.40;;;;;;;;;;5051963;28;20025;-32
2023/05/26 12:37:59;;;;;;;17.75;5.65;;;;;;;;;;5051931;28;20114;-32
2023/05/26 12:40:25;;;;;;;15.15;5.00;;;;;;;;;;5051389;28;20041;-31
2023/05/26 12:42:51;;;;;;;14.30;4.70;;;;;;;;;;5051908;28;20379;-32
2023/05/26 12:45:17;;;;;;;14.57;5.45;;;;;;;;;;5051979;28;20029;-33
2023/05/26 12:47:43;;;;;;;13.82;4.50;;;;;;;;;;5051748;28;20377;-30
2023/05/26 12:50:09;;;;;;;18.52;4.50;;;;;;;;;;5051548;28;20120;-31
2023/05/26 12:52:35;;;;;;;15.57;4.75;;;;;;;;;;5051752;28;20044;-34
2023/05/26 12:55:01;;;;;;;9.65;4.95;;;;;;;;;;5051760;28;20573;-30
2023/05/26 12:57:27;;;;;;;17.80;4.97;;;;;;;;;;5051483;28;20017;-30
2023/05/26 12:59:53;;;;;;;13.60;4.95;;;;;;;;;;5051828;28;20028;-31
2023/05/26 13:02:19;;;;;;;16.13;4.60;;;;;;;;;;5051663;28;20488;-29
2023/05/26 13:04:45;;;;;;;15.90;4.93;;;;;;;;;;5051823;28;20502;-31
2023/05/26 13:07:11;;;;;;;14.88;4.88;;;;;;;;;;5051860;28;20031;-34
2023/05/26 13:09:37;;;;;;;21.88;5.70;;;;;;;;;;5052097;28;20029;-30
2023/05/26 13:12:03;;;;;;;20.35;6.43;;;;;;;;;;5051504;28;20025;-30
2023/05/26 13:14:29;;;;;;;18.83;6.18;;;;;;;;;;5051582;28;20036;-32
2023/05/26 13:16:55;;;;;;;15.85;5.93;;;;;;;;;;5051415;28;20120;-31
2023/05/26 13:19:21;;;;;;;16.50;6.10;;;;;;;;;;5051471;28;20509;-31
2023/05/26 13:21:47;;;;;;;18.95;6.45;;;;;;;;;;5051506;28;20025;-30
2023/05/26 13:24:13;;;;;;;16.67;6.22;;;;;;;;;;5051042;28;20496;-34
2023/05/26 13:26:39;;;;;;;20.77;6.40;;;;;;;;;;5051505;28;20024;-30
2023/05/26 13:29:07;;;;;;;16.25;6.57;;;;;;;;;;5052313;28;20049;-30
2023/05/26 13:31:33;;;;;;;16.85;6.65;;;;;;;;;;5055129;28;20017;-31
2023/05/26 13:33:59;;;;;;;19.92;6.55;;;;;;;;;;5054970;28;20386;-33
2023/05/26 13:36:25;;;;;;;23.70;7.22;;;;;;;;;;5054870;28;20029;-31
2023/05/26 13:38:51;;;;;;;15.00;6.43;;;;;;;;;;5054635;28;20087;-30
2023/05/26 13:41:19;;;;;;;23.60;7.70;;;;;;;;;;5053739;28;20108;-31
2023/05/26 13:43:45;;;;;;;14.32;6.65;;;;;;;;;;5054804;28;20060;-32
2023/05/26 13:46:11;;;;;;;16.48;7.35;;;;;;;;;;5054690;28;20375;-31
2023/05/26 13:48:37;;;;;;;15.10;7.32;;;;;;;;;;5054567;28;20024;-32
2023/05/26 13:51:03;;;;;;;19.20;6.88;;;;;;;;;;5054623;28;20458;-31
2023/05/26 13:53:29;;;;;;;17.15;7.28;;;;;;;;;;5054972;28;20099;-39
2023/05/26 13:55:55;;;;;;;19.52;6.95;;;;;;;;;;5054677;28;20040;-31
2023/05/26 13:58:21;;;;;;;14.73;6.72;;;;;;;;;;5054579;28;20417;-31
2023/05/26 14:00:47;;;;;;;18.20;8.18;;;;;;;;;;5054520;28;20479;-32
2023/05/26 14:03:13;;;;;;;15.55;6.88;;;;;;;;;;5054493;28;20036;-31
2023/05/26 14:05:39;;;;;;;17.67;6.75;;;;;;;;;;5054736;28;20048;-32
2023/05/26 14:08:06;;;;;;;15.48;6.70;;;;;;;;;;5054480;28;20029;-30
2023/05/26 14:10:36;;;;;;;13.63;6.07;;;;;;;;;;5054436;28;20028;-31
2023/05/26 14:13:02;;;;;;;15.32;6.55;;;;;;;;;;5054507;28;20039;-35
2023/05/26 14:15:31;;;;;;;12.95;6.55;;;;;;;;;;5054132;28;20040;-31
2023/05/26 14:17:58;;;;;;;16.95;6.55;;;;;;;;;;5052866;28;20025;-30
2023/05/26 14:20:25;;;;;;;16.00;5.85;;;;;;;;;;5054155;28;20104;-31
2023/05/26 14:22:51;;;;;;;15.63;6.00;;;;;;;;;;5054083;28;20477;-30
2023/05/26 14:25:17;;;;;;;13.43;6.18;;;;;;;;;;5053970;28;20108;-31
2023/05/26 14:27:44;;;;;;;14.07;6.32;;;;;;;;;;5054213;28;20024;-31
2023/05/26 14:30:10;;;;;;;17.40;6.97;;;;;;;;;;5053986;28;20039;-30